createdAt,value
2022-08-07T00:00:57.784Z,79.29
2022-08-07T00:02:36.095Z,79.29
2022-08-07T00:02:57.787Z,79.19
2022-08-07T00:03:57.788Z,79.49
2022-08-07T00:04:57.850Z,79.39
2022-08-07T00:05:57.788Z,79.49
2022-08-07T00:07:01.264Z,79.60
2022-08-07T00:07:59.707Z,79.69
2022-08-07T00:08:57.792Z,79.93
2022-08-07T00:10:19.359Z,80.24
2022-08-07T00:10:58.307Z,79.73
2022-08-07T00:11:58.904Z,80.24
2022-08-07T00:13:01.087Z,80.13
2022-08-07T00:13:57.805Z,79.93
2022-08-07T00:14:57.802Z,80.10
2022-08-07T00:15:57.804Z,80.44
2022-08-07T00:16:57.810Z,80.04
2022-08-07T00:17:57.806Z,79.63
2022-08-07T00:18:57.804Z,79.83
2022-08-07T00:20:01.218Z,80.04
2022-08-07T00:21:01.766Z,80.13
2022-08-07T00:22:02.090Z,79.77
2022-08-07T00:22:57.811Z,79.53
2022-08-07T00:23:57.812Z,79.83
2022-08-07T00:24:57.811Z,79.53
2022-08-07T00:25:59.196Z,79.63
2022-08-07T00:27:06.758Z,79.63
2022-08-07T00:27:57.821Z,79.83
2022-08-07T00:28:57.823Z,79.63
2022-08-07T00:29:57.820Z,79.73
2022-08-07T00:30:57.821Z,79.43
2022-08-07T00:31:57.823Z,79.53
2022-08-07T00:32:58.090Z,79.67
2022-08-07T00:33:57.826Z,79.63
2022-08-07T00:34:57.827Z,79.63
2022-08-07T00:35:57.827Z,80.58
2022-08-07T00:36:57.830Z,80.27
2022-08-07T00:37:57.836Z,80.68
2022-08-07T00:38:57.867Z,80.68
2022-08-07T00:39:57.866Z,80.47
2022-08-07T00:40:57.836Z,80.18
2022-08-07T00:42:01.345Z,80.78
2022-08-07T00:42:57.839Z,81.08
2022-08-07T00:44:00.854Z,80.68
2022-08-07T00:44:57.838Z,80.27
2022-08-07T00:45:57.846Z,80.88
2022-08-07T00:46:57.846Z,80.78
2022-08-07T00:48:07.951Z,81.08
2022-08-07T00:48:57.845Z,80.78
2022-08-07T00:50:19.370Z,80.68
2022-08-07T00:50:57.846Z,81.79
2022-08-07T00:51:58.684Z,80.92
2022-08-07T00:52:57.848Z,81.22
2022-08-07T00:53:57.851Z,80.88
2022-08-07T00:54:57.852Z,81.73
2022-08-07T00:56:02.631Z,81.02
2022-08-07T00:56:57.858Z,81.62
2022-08-07T00:57:57.852Z,80.92
2022-08-07T00:58:57.857Z,81.42
2022-08-07T00:59:57.857Z,80.51
2022-08-07T01:00:57.865Z,80.82
2022-08-07T01:01:58.045Z,81.62
2022-08-07T01:02:57.859Z,81.32
2022-08-07T01:04:00.271Z,81.42
2022-08-07T01:04:58.659Z,82.07
2022-08-07T01:05:57.864Z,82.37
2022-08-07T01:06:57.869Z,82.37
2022-08-07T01:07:57.865Z,82.78
2022-08-07T01:08:58.703Z,82.98
2022-08-07T01:10:06.668Z,82.37
2022-08-07T01:10:58.443Z,82.87
2022-08-07T01:12:27.623Z,82.67
2022-08-07T01:12:57.871Z,82.87
2022-08-07T01:13:57.874Z,83.07
2022-08-07T01:15:01.010Z,82.78
2022-08-07T01:16:05.162Z,82.87
2022-08-07T01:16:57.880Z,83.12
2022-08-07T01:17:57.872Z,82.91
2022-08-07T01:18:57.877Z,82.91
2022-08-07T01:19:57.879Z,82.95
2022-08-07T01:20:59.790Z,82.81
2022-08-07T01:21:57.882Z,83.86
2022-08-07T01:23:09.142Z,83.72
2022-08-07T01:23:57.879Z,83.86
2022-08-07T01:24:57.884Z,82.81
2022-08-07T01:25:57.884Z,83.01
2022-08-07T01:26:57.888Z,84.47
2022-08-07T01:27:57.890Z,83.82
2022-08-07T01:28:57.891Z,83.72
2022-08-07T01:29:57.889Z,83.36
2022-08-07T01:30:57.889Z,82.85
2022-08-07T01:31:59.348Z,82.95
2022-08-07T01:32:58.266Z,83.40
2022-08-07T01:33:57.890Z,83.60
2022-08-07T01:34:57.898Z,84.71
2022-08-07T01:36:06.238Z,84.81
2022-08-07T01:36:58.474Z,84.71
2022-08-07T01:37:57.895Z,84.31
2022-08-07T01:38:57.935Z,84.45
2022-08-07T01:39:57.943Z,84.61
2022-08-07T01:40:57.901Z,84.41
2022-08-07T01:42:37.146Z,84.51
2022-08-07T01:42:59.060Z,84.11
2022-08-07T01:43:57.905Z,84.11
2022-08-07T01:44:57.908Z,84.41
2022-08-07T01:45:58.728Z,84.51
2022-08-07T01:46:57.910Z,84.00
2022-08-07T01:48:19.126Z,84.41
2022-08-07T01:48:57.911Z,84.91
2022-08-07T01:49:57.907Z,84.71
2022-08-07T01:50:57.910Z,84.20
2022-08-07T01:52:02.015Z,84.20
2022-08-07T01:52:58.521Z,84.11
2022-08-07T01:54:00.763Z,83.70
2022-08-07T01:54:58.938Z,83.96
2022-08-07T01:55:57.915Z,84.06
2022-08-07T01:56:57.919Z,83.66
2022-08-07T01:58:05.653Z,82.75
2022-08-07T01:58:57.923Z,82.75
2022-08-07T01:59:57.919Z,83.46
2022-08-07T02:01:25.179Z,83.96
2022-08-07T02:02:00.205Z,83.76
2022-08-07T02:03:11.626Z,83.92
2022-08-07T02:03:58.028Z,83.96
2022-08-07T02:04:57.929Z,83.96
2022-08-07T02:05:59.915Z,83.05
2022-08-07T02:06:57.937Z,83.05
2022-08-07T02:07:57.929Z,83.12
2022-08-07T02:08:57.928Z,82.85
2022-08-07T02:09:58.536Z,82.85
2022-08-07T02:10:58.301Z,83.05
2022-08-07T02:12:03.310Z,83.15
2022-08-07T02:12:57.933Z,82.95
2022-08-07T02:14:02.313Z,83.76
2022-08-07T02:14:57.934Z,83.76
2022-08-07T02:15:57.940Z,82.75
2022-08-07T02:16:57.935Z,83.86
2022-08-07T02:17:57.935Z,82.75
2022-08-07T02:18:57.940Z,83.26
2022-08-07T02:20:07.508Z,82.85
2022-08-07T02:20:57.945Z,83.70
2022-08-07T02:21:58.757Z,82.79
2022-08-07T02:22:59.642Z,83.29
2022-08-07T02:23:57.945Z,83.70
2022-08-07T02:24:57.955Z,84.00
2022-08-07T02:26:31.729Z,83.94
2022-08-07T02:26:57.950Z,84.69
2022-08-07T02:27:57.944Z,84.45
2022-08-07T02:28:57.949Z,84.65
2022-08-07T02:29:57.949Z,84.34
2022-08-07T02:30:58.009Z,84.25
2022-08-07T02:31:57.948Z,84.14
2022-08-07T02:33:00.773Z,84.25
2022-08-07T02:34:04.213Z,84.25
2022-08-07T02:34:57.956Z,84.95
2022-08-07T02:36:29.774Z,84.85
2022-08-07T02:36:57.957Z,84.20
2022-08-07T02:37:57.954Z,84.65
2022-08-07T02:38:57.975Z,84.55
2022-08-07T02:40:02.291Z,84.20
2022-08-07T02:40:58.000Z,84.20
2022-08-07T02:41:57.956Z,84.31
2022-08-07T02:42:57.956Z,84.75
2022-08-07T02:43:57.958Z,84.04
2022-08-07T02:44:58.441Z,84.91
2022-08-07T02:46:02.390Z,84.55
2022-08-07T02:46:57.962Z,83.94
2022-08-07T02:47:59.070Z,84.65
2022-08-07T02:48:57.972Z,84.85
2022-08-07T02:49:59.832Z,84.95
2022-08-07T02:50:57.964Z,86.00
2022-08-07T02:51:57.978Z,86.25
2022-08-07T02:53:00.798Z,86.25
2022-08-07T02:53:57.967Z,86.55
2022-08-07T02:54:57.970Z,86.85
2022-08-07T02:56:03.587Z,86.65
2022-08-07T02:56:57.972Z,86.96
2022-08-07T02:57:57.975Z,87.05
2022-08-07T02:58:57.974Z,87.16
2022-08-07T03:00:01.234Z,86.85
2022-08-07T03:00:58.097Z,86.25
2022-08-07T03:02:01.184Z,86.85
2022-08-07T03:02:57.979Z,86.31
2022-08-07T03:03:57.978Z,86.45
2022-08-07T03:04:57.981Z,85.64
2022-08-07T03:05:57.984Z,86.82
2022-08-07T03:06:58.079Z,85.64
2022-08-07T03:08:07.482Z,86.10
2022-08-07T03:08:57.983Z,86.57
2022-08-07T03:09:57.982Z,86.21
2022-08-07T03:10:57.984Z,85.90
2022-08-07T03:12:02.785Z,85.60
2022-08-07T03:12:57.988Z,84.89
2022-08-07T03:14:01.633Z,84.48
2022-08-07T03:14:57.985Z,86.10
2022-08-07T03:15:58.649Z,86.10
2022-08-07T03:16:57.986Z,85.80
2022-08-07T03:17:57.987Z,86.15
2022-08-07T03:18:57.991Z,86.25
2022-08-07T03:19:57.990Z,86.15
2022-08-07T03:20:57.992Z,86.35
2022-08-07T03:21:58.701Z,87.16
2022-08-07T03:22:58.626Z,86.55
2022-08-07T03:24:19.039Z,87.26
2022-08-07T03:24:57.995Z,87.30
2022-08-07T03:25:59.784Z,87.40
2022-08-07T03:26:59.513Z,87.51
2022-08-07T03:28:09.771Z,87.40
2022-08-07T03:28:57.999Z,87.00
2022-08-07T03:29:57.996Z,87.10
2022-08-07T03:30:58.000Z,87.40
2022-08-07T03:31:58.000Z,86.79
2022-08-07T03:32:58.902Z,86.25
2022-08-07T03:33:58.002Z,86.45
2022-08-07T03:35:00.971Z,87.26
2022-08-07T03:35:58.007Z,86.96
2022-08-07T03:36:58.155Z,86.85
2022-08-07T03:37:58.006Z,87.36
2022-08-07T03:38:58.084Z,87.30
2022-08-07T03:40:13.275Z,86.85
2022-08-07T03:40:58.095Z,87.66
2022-08-07T03:41:58.005Z,87.36
2022-08-07T03:42:58.012Z,87.16
2022-08-07T03:43:58.015Z,87.26
2022-08-07T03:44:58.290Z,87.46
2022-08-07T03:45:58.012Z,87.40
2022-08-07T03:47:13.821Z,87.20
2022-08-07T03:47:58.081Z,87.51
2022-08-07T03:49:02.221Z,87.40
2022-08-07T03:49:58.010Z,87.74
2022-08-07T03:50:58.155Z,88.66
2022-08-07T03:52:01.449Z,88.66
2022-08-07T03:52:58.018Z,89.11
2022-08-07T03:54:33.283Z,89.31
2022-08-07T03:55:06.070Z,89.21
2022-08-07T03:56:03.976Z,89.31
2022-08-07T03:57:03.656Z,89.57
2022-08-07T03:58:33.841Z,89.31
2022-08-07T03:59:08.260Z,89.61
2022-08-07T04:00:01.745Z,89.41
2022-08-07T04:01:00.498Z,89.31
2022-08-07T04:01:58.093Z,89.81
2022-08-07T04:02:58.021Z,89.81
2022-08-07T04:03:58.023Z,89.11
2022-08-07T04:04:58.025Z,89.31
2022-08-07T04:05:58.834Z,89.17
2022-08-07T04:06:58.026Z,89.77
2022-08-07T04:07:58.025Z,88.46
2022-08-07T04:08:58.029Z,89.06
2022-08-07T04:09:58.026Z,89.06
2022-08-07T04:11:14.964Z,88.56
2022-08-07T04:12:15.586Z,89.17
2022-08-07T04:12:58.029Z,88.01
2022-08-07T04:14:09.369Z,88.01
2022-08-07T04:14:58.032Z,87.91
2022-08-07T04:15:58.037Z,87.91
2022-08-07T04:16:58.999Z,87.36
2022-08-07T04:18:32.001Z,87.05
2022-08-07T04:19:01.665Z,86.45
2022-08-07T04:19:58.035Z,87.05
2022-08-07T04:20:58.061Z,86.69
2022-08-07T04:21:59.295Z,86.05
2022-08-07T04:23:01.617Z,86.65
2022-08-07T04:24:07.417Z,86.45
2022-08-07T04:24:58.438Z,86.15
2022-08-07T04:25:58.039Z,86.51
2022-08-07T04:26:58.041Z,86.35
2022-08-07T04:27:59.112Z,86.00
2022-08-07T04:28:58.546Z,86.00
2022-08-07T04:30:02.125Z,86.45
2022-08-07T04:30:58.751Z,86.41
2022-08-07T04:32:03.293Z,87.52
2022-08-07T04:32:58.828Z,87.02
2022-08-07T04:33:58.041Z,88.02
2022-08-07T04:34:58.050Z,86.82
2022-08-07T04:35:58.054Z,87.16
2022-08-07T04:36:58.054Z,88.07
2022-08-07T04:38:03.332Z,88.78
2022-08-07T04:38:58.075Z,88.02
2022-08-07T04:39:58.162Z,87.42
2022-08-07T04:40:58.050Z,88.43
2022-08-07T04:41:58.051Z,88.43
2022-08-07T04:43:02.048Z,88.33
2022-08-07T04:44:11.890Z,87.82
2022-08-07T04:45:07.790Z,87.82
2022-08-07T04:46:01.785Z,87.42
2022-08-07T04:47:04.859Z,88.19
2022-08-07T04:48:06.003Z,87.68
2022-08-07T04:48:58.054Z,88.39
2022-08-07T04:50:04.014Z,87.58
2022-08-07T04:50:58.060Z,87.28
2022-08-07T04:51:58.058Z,86.57
2022-08-07T04:52:58.057Z,87.28
2022-08-07T04:54:01.380Z,87.08
2022-08-07T04:54:58.254Z,87.28
2022-08-07T04:58:11.028Z,87.08
2022-08-07T04:58:12.436Z,87.95
2022-08-07T04:58:13.821Z,86.63
2022-08-07T05:00:11.678Z,87.34
2022-08-07T05:00:58.119Z,87.04
2022-08-07T05:01:58.066Z,87.24
2022-08-07T05:02:58.063Z,86.13
2022-08-07T05:04:06.440Z,85.72
2022-08-07T05:04:58.073Z,87.44
2022-08-07T05:05:58.063Z,86.39
2022-08-07T05:06:58.065Z,87.40
2022-08-07T05:07:58.069Z,87.10
2022-08-07T05:09:01.368Z,85.99
2022-08-07T05:09:58.073Z,87.50
2022-08-07T05:10:58.347Z,86.65
2022-08-07T05:12:02.521Z,85.94
2022-08-07T05:13:09.774Z,87.05
2022-08-07T05:14:55.792Z,86.55
2022-08-07T05:15:03.259Z,86.95
2022-08-07T05:15:58.076Z,87.26
2022-08-07T05:16:58.075Z,86.75
2022-08-07T05:17:58.329Z,86.95
2022-08-07T05:18:58.078Z,86.65
2022-08-07T05:19:58.075Z,85.70
2022-08-07T05:20:58.077Z,86.21
2022-08-07T05:21:59.885Z,85.80
2022-08-07T05:22:58.078Z,85.60
2022-08-07T05:23:58.078Z,85.25
2022-08-07T05:24:59.580Z,85.76
2022-08-07T05:26:13.050Z,85.16
2022-08-07T05:26:58.081Z,85.86
2022-08-07T05:28:02.856Z,85.56
2022-08-07T05:28:58.086Z,85.82
2022-08-07T05:29:58.080Z,84.81
2022-08-07T05:30:58.086Z,84.01
2022-08-07T05:31:58.082Z,84.61
2022-08-07T05:32:58.087Z,84.61
2022-08-07T05:34:04.924Z,84.21
2022-08-07T05:34:58.084Z,85.22
2022-08-07T05:35:58.091Z,84.97
2022-08-07T05:36:58.211Z,85.11
2022-08-07T05:38:08.378Z,83.97
2022-08-07T05:39:08.678Z,85.38
2022-08-07T05:40:16.708Z,83.87
2022-08-07T05:40:58.147Z,84.57
2022-08-07T05:42:01.862Z,83.83
2022-08-07T05:42:58.094Z,83.52
2022-08-07T05:44:12.255Z,84.53
2022-08-07T05:45:14.559Z,84.83
2022-08-07T05:45:58.098Z,84.33
2022-08-07T05:46:58.094Z,83.93
2022-08-07T05:48:01.114Z,84.19
2022-08-07T05:48:59.678Z,83.79
2022-08-07T05:49:58.098Z,83.99
2022-08-07T05:50:58.104Z,83.89
2022-08-07T05:51:58.101Z,83.48
2022-08-07T05:52:58.099Z,84.25
2022-08-07T05:54:12.143Z,83.75
2022-08-07T05:54:59.265Z,83.34
2022-08-07T05:56:03.869Z,82.64
2022-08-07T05:56:58.764Z,83.11
2022-08-07T05:57:58.106Z,82.60
2022-08-07T05:58:58.102Z,82.50
2022-08-07T05:59:58.392Z,82.60
2022-08-07T06:00:58.105Z,82.56
2022-08-07T06:01:58.205Z,82.56
2022-08-07T06:02:58.106Z,82.46
2022-08-07T06:04:00.920Z,82.86
2022-08-07T06:04:58.108Z,81.85
2022-08-07T06:05:58.110Z,82.46
2022-08-07T06:07:03.987Z,82.56
2022-08-07T06:08:13.869Z,82.42
2022-08-07T06:08:58.262Z,81.62
2022-08-07T06:10:05.209Z,82.72
2022-08-07T06:10:58.114Z,82.68
2022-08-07T06:11:58.118Z,82.52
2022-08-07T06:12:58.117Z,82.18
2022-08-07T06:14:12.853Z,82.58
2022-08-07T06:15:05.088Z,81.88
2022-08-07T06:15:58.168Z,81.88
2022-08-07T06:16:58.122Z,80.94
2022-08-07T06:17:58.120Z,80.27
2022-08-07T06:18:58.129Z,80.04
2022-08-07T06:20:03.990Z,79.43
2022-08-07T06:22:15.646Z,79.69
2022-08-07T06:22:17.020Z,79.33
2022-08-07T06:23:02.463Z,80.19
2022-08-07T06:24:52.887Z,79.66
2022-08-07T06:25:01.559Z,80.66
2022-08-07T06:25:58.132Z,80.06
2022-08-07T06:26:58.157Z,80.36
2022-08-07T06:28:01.102Z,79.55
2022-08-07T06:28:58.996Z,80.16
2022-08-07T06:29:58.133Z,80.72
2022-08-07T06:30:58.624Z,80.62
2022-08-07T06:31:58.132Z,79.02
2022-08-07T06:32:58.134Z,78.98
2022-08-07T06:33:58.140Z,80.08
2022-08-07T06:34:58.139Z,79.08
2022-08-07T06:36:11.956Z,77.98
2022-08-07T06:36:58.141Z,78.18
2022-08-07T06:37:58.141Z,77.94
2022-08-07T06:40:13.081Z,78.04
2022-08-07T06:40:18.023Z,76.40
2022-08-07T06:40:58.214Z,77.04
2022-08-07T06:42:02.066Z,77.60
2022-08-07T06:42:58.145Z,77.00
2022-08-07T06:44:01.427Z,76.80
2022-08-07T06:44:58.147Z,77.20
2022-08-07T06:46:00.825Z,75.70
2022-08-07T06:47:10.567Z,74.87
2022-08-07T06:47:59.537Z,74.66
2022-08-07T06:48:58.158Z,75.96
2022-08-07T06:49:58.966Z,76.63
2022-08-07T06:50:58.153Z,75.13
2022-08-07T06:52:02.846Z,74.73
2022-08-07T06:52:58.156Z,74.53
2022-08-07T06:55:28.554Z,74.13
2022-08-07T06:55:33.208Z,72.79
2022-08-07T06:56:00.828Z,72.79
2022-08-07T06:56:58.159Z,72.96
2022-08-07T06:57:58.200Z,73.06
2022-08-07T07:00:13.715Z,73.36
2022-08-07T07:00:14.271Z,73.96
2022-08-07T07:00:58.164Z,73.02
2022-08-07T07:01:58.287Z,73.39
2022-08-07T07:03:01.154Z,72.02
2022-08-07T07:04:08.294Z,71.49
2022-08-07T07:04:58.172Z,70.99
2022-08-07T07:06:02.995Z,69.99
2022-08-07T07:07:01.009Z,70.69
2022-08-07T07:08:00.000Z,70.69
2022-08-07T07:08:58.275Z,70.76
2022-08-07T07:09:58.175Z,70.65
2022-08-07T07:10:59.040Z,70.26
2022-08-07T07:12:09.798Z,69.92
2022-08-07T07:12:58.177Z,69.99
2022-08-07T07:14:02.266Z,70.39
2022-08-07T07:14:58.182Z,69.89
2022-08-07T07:15:58.182Z,69.59
2022-08-07T07:16:58.186Z,67.60
2022-08-07T07:17:58.215Z,68.37
2022-08-07T07:18:58.186Z,69.06
2022-08-07T07:19:59.119Z,67.86
2022-08-07T07:20:58.188Z,66.94
2022-08-07T07:22:05.391Z,67.73
2022-08-07T07:24:08.821Z,64.94
2022-08-07T07:24:09.835Z,66.83
2022-08-07T07:25:14.254Z,66.80
2022-08-07T07:26:33.002Z,67.00
2022-08-07T07:26:58.200Z,66.87
2022-08-07T07:30:26.565Z,64.42
2022-08-07T07:33:07.823Z,63.64
2022-08-07T07:34:07.365Z,62.68
2022-08-07T07:35:07.365Z,61.10
2022-08-07T07:36:12.923Z,59.36
2022-08-07T07:37:21.665Z,58.29
2022-08-07T07:38:07.563Z,58.11
2022-08-07T07:39:07.426Z,56.48
2022-08-07T07:40:10.205Z,56.39
2022-08-07T07:41:08.948Z,54.37
2022-08-07T07:42:13.693Z,54.12
2022-08-07T07:43:15.338Z,52.30
2022-08-07T07:44:17.917Z,53.53
2022-08-07T07:45:07.385Z,51.66
2022-08-07T07:46:36.913Z,51.25
2022-08-07T07:47:14.343Z,50.34
2022-08-07T07:48:07.390Z,51.20
2022-08-07T07:50:29.816Z,49.97
2022-08-07T07:50:34.518Z,48.87
2022-08-07T07:51:07.940Z,48.07
2022-08-07T07:52:07.405Z,49.22
2022-08-07T07:53:20.188Z,48.61
2022-08-07T07:54:07.408Z,48.17
2022-08-07T07:55:07.414Z,48.22
2022-08-07T07:56:07.429Z,46.05
2022-08-07T07:57:07.427Z,45.29
2022-08-07T07:58:07.430Z,46.39
2022-08-07T07:59:07.426Z,46.53
2022-08-07T08:00:07.431Z,45.95
2022-08-07T08:02:01.849Z,46.73
2022-08-07T08:02:10.698Z,46.41
2022-08-07T08:03:08.397Z,47.36
2022-08-07T08:04:10.143Z,45.22
2022-08-07T08:05:11.534Z,46.69
2022-08-07T08:06:07.464Z,46.66
2022-08-07T08:07:07.647Z,45.95
2022-08-07T08:08:07.482Z,45.06
2022-08-07T08:09:08.118Z,44.74
2022-08-07T08:10:07.487Z,45.01
2022-08-07T08:11:08.445Z,45.01
2022-08-07T08:12:07.498Z,45.40
2022-08-07T08:13:10.404Z,44.14
2022-08-07T08:14:07.597Z,44.60
2022-08-07T08:15:07.526Z,44.29
2022-08-07T08:16:07.532Z,45.21
2022-08-07T08:17:55.676Z,42.48
2022-08-07T08:18:17.624Z,42.55
2022-08-07T08:19:18.170Z,42.94
2022-08-07T08:20:18.170Z,41.89
2022-08-07T08:21:07.653Z,41.39
2022-08-07T08:22:07.910Z,41.49
2022-08-07T08:23:10.226Z,42.05
2022-08-07T08:28:37.662Z,42.79
2022-08-07T08:29:26.827Z,41.23
2022-08-07T08:30:26.840Z,41.28
2022-08-07T08:31:30.198Z,42.61
2022-08-07T08:32:38.161Z,38.74
2022-08-07T08:33:28.922Z,41.17
2022-08-07T08:34:29.171Z,41.45
2022-08-07T08:35:28.751Z,43.10
2022-08-07T08:36:29.933Z,43.38
2022-08-07T08:38:01.507Z,44.76
2022-08-07T08:38:30.087Z,46.00
2022-08-07T08:39:39.532Z,48.70
2022-08-07T08:40:28.774Z,50.49
2022-08-07T08:41:31.357Z,49.26
2022-08-07T08:42:26.973Z,48.21
2022-08-07T08:43:41.878Z,50.61
2022-08-07T08:44:29.476Z,48.96
2022-08-07T08:45:58.350Z,50.59
2022-08-07T08:46:27.017Z,53.14
2022-08-07T08:48:10.765Z,51.30
2022-08-07T08:49:09.789Z,52.48
2022-08-07T08:50:09.603Z,50.34
2022-08-07T08:51:14.570Z,52.21
2022-08-07T08:52:13.729Z,50.66
2022-08-07T08:53:09.626Z,52.43
2022-08-07T08:54:09.635Z,52.53
2022-08-07T08:56:59.809Z,54.25
2022-08-07T08:57:59.805Z,52.38
2022-08-07T08:58:59.818Z,55.63
2022-08-07T09:00:00.097Z,54.45
2022-08-07T09:02:35.111Z,54.82
2022-08-07T09:03:47.661Z,55.24
2022-08-07T09:06:11.326Z,54.82
2022-08-07T09:07:11.321Z,56.20
2022-08-07T09:08:10.826Z,55.58
2022-08-07T09:10:48.493Z,54.60
2022-08-07T09:11:53.332Z,56.39
2022-08-07T09:12:53.605Z,58.36
2022-08-07T09:13:48.514Z,56.20
2022-08-07T09:14:51.011Z,56.16
2022-08-07T09:16:23.995Z,53.74
2022-08-07T09:16:48.534Z,56.49
2022-08-07T09:17:59.226Z,55.90
2022-08-07T09:18:53.145Z,53.74
2022-08-07T09:19:52.684Z,53.31
2022-08-07T09:20:58.651Z,53.81
2022-08-07T09:22:23.102Z,53.64
2022-08-07T09:24:30.646Z,51.76
2022-08-07T09:24:33.900Z,54.79
2022-08-07T09:24:59.381Z,52.58
2022-08-07T09:25:54.426Z,52.19
2022-08-07T09:26:51.113Z,53.17
2022-08-07T09:28:00.375Z,53.07
2022-08-07T09:30:00.814Z,52.50
2022-08-07T09:30:06.698Z,52.80
2022-08-07T09:30:52.898Z,53.56
2022-08-07T09:31:49.464Z,53.99
2022-08-07T09:32:48.635Z,52.11
2022-08-07T09:33:57.165Z,53.36
2022-08-07T09:34:54.046Z,54.64
2022-08-07T09:36:05.339Z,53.00
2022-08-07T09:37:56.270Z,54.84
2022-08-07T09:38:56.264Z,56.32
2022-08-07T09:39:56.355Z,52.50
2022-08-07T09:40:56.285Z,52.53
2022-08-07T09:42:03.218Z,53.61
2022-08-07T09:42:56.290Z,53.71
2022-08-07T09:44:06.872Z,53.64
2022-08-07T09:47:24.790Z,54.55
2022-08-07T09:47:25.852Z,54.03
2022-08-07T09:47:52.427Z,56.23
2022-08-07T09:48:01.429Z,55.35
2022-08-07T09:50:02.316Z,54.58
2022-08-07T09:50:43.886Z,53.99
2022-08-07T09:52:16.132Z,55.27
2022-08-07T09:52:43.900Z,54.02
2022-08-07T09:53:55.131Z,55.89
2022-08-07T09:56:03.932Z,55.20
2022-08-07T09:57:29.221Z,55.99
2022-08-07T09:58:32.291Z,55.30
2022-08-07T09:59:35.805Z,55.62
2022-08-07T10:00:29.854Z,56.12
2022-08-07T10:01:51.522Z,56.41
2022-08-07T10:02:29.660Z,58.19
2022-08-07T10:04:07.240Z,55.52
2022-08-07T10:04:32.829Z,56.74
2022-08-07T10:05:58.293Z,56.14
2022-08-07T10:06:29.166Z,55.65
2022-08-07T10:07:31.634Z,56.67
2022-08-07T10:08:29.155Z,58.15
2022-08-07T10:09:34.303Z,56.34
2022-08-07T10:10:30.054Z,57.43
2022-08-07T10:12:02.143Z,57.16
2022-08-07T10:12:29.127Z,57.03
2022-08-07T10:13:55.265Z,58.51
2022-08-07T10:14:30.381Z,58.61
2022-08-07T10:15:29.142Z,56.96
2022-08-07T10:16:29.143Z,56.57
2022-08-07T10:17:33.693Z,55.15
2022-08-07T10:18:29.151Z,56.57
2022-08-07T10:19:30.074Z,58.02
2022-08-07T10:20:31.856Z,57.35
2022-08-07T10:22:12.609Z,57.16
2022-08-07T10:22:33.532Z,55.68
2022-08-07T10:24:06.480Z,59.04
2022-08-07T10:24:29.181Z,58.34
2022-08-07T10:25:42.298Z,56.34
2022-08-07T10:26:29.188Z,56.46
2022-08-07T10:27:30.292Z,53.87
2022-08-07T10:28:29.197Z,55.87
2022-08-07T10:29:30.306Z,57.75
2022-08-07T10:30:29.209Z,57.26
2022-08-07T10:31:31.389Z,57.95
2022-08-07T10:32:37.135Z,59.20
2022-08-07T10:34:05.645Z,58.91
2022-08-07T10:34:32.173Z,57.73
2022-08-07T10:35:53.654Z,57.30
2022-08-07T10:36:30.137Z,58.69
2022-08-07T10:38:00.148Z,56.91
2022-08-07T10:38:36.121Z,56.98
2022-08-07T10:39:41.312Z,57.37
2022-08-07T10:40:30.027Z,56.29
2022-08-07T10:41:46.986Z,55.00
2022-08-07T10:42:31.237Z,55.10
2022-08-07T10:43:34.159Z,52.24
2022-08-07T10:44:38.710Z,55.30
2022-08-07T10:46:29.278Z,53.64
2022-08-07T10:47:52.892Z,56.09
2022-08-07T10:48:34.589Z,56.38
2022-08-07T10:49:49.337Z,56.38
2022-08-07T10:50:29.295Z,56.38
2022-08-07T10:51:39.631Z,53.62
2022-08-07T10:52:33.632Z,53.89
2022-08-07T10:53:43.929Z,55.18
2022-08-07T10:54:29.313Z,53.39
2022-08-07T10:55:37.864Z,51.94
2022-08-07T10:56:31.653Z,53.13
2022-08-07T10:58:11.876Z,52.86
2022-08-07T10:59:13.610Z,54.41
2022-08-07T11:00:36.675Z,55.40
2022-08-07T11:01:12.333Z,54.80
2022-08-07T11:02:33.186Z,54.88
2022-08-07T11:03:12.640Z,54.36
2022-08-07T11:04:31.653Z,54.46
2022-08-07T11:05:11.901Z,55.54
2022-08-07T11:06:11.911Z,52.19
2022-08-07T11:07:24.891Z,51.99
2022-08-07T11:08:11.953Z,52.68
2022-08-07T11:09:11.921Z,53.37
2022-08-07T11:10:11.939Z,53.17
2022-08-07T11:11:11.932Z,54.33
2022-08-07T11:12:11.940Z,54.93
2022-08-07T11:13:42.424Z,56.18
2022-08-07T11:14:44.340Z,54.60
2022-08-07T11:15:14.894Z,52.50
2022-08-07T11:16:11.962Z,51.52
2022-08-07T11:18:04.696Z,52.48
2022-08-07T11:19:04.530Z,51.50
2022-08-07T11:20:04.539Z,51.40
2022-08-07T11:21:04.539Z,51.40
2022-08-07T11:22:04.544Z,54.72
2022-08-07T11:23:04.552Z,51.54
2022-08-07T11:24:04.555Z,52.14
2022-08-07T11:25:06.841Z,52.33
2022-08-07T11:26:07.201Z,49.28
2022-08-07T11:27:04.568Z,50.73
2022-08-07T11:28:04.874Z,50.66
2022-08-07T11:29:05.521Z,50.83
2022-08-07T11:30:17.863Z,50.83
2022-08-07T11:31:08.781Z,50.63
2022-08-07T11:32:04.591Z,49.87
2022-08-07T11:33:07.997Z,48.67
2022-08-07T11:34:04.600Z,49.48
2022-08-07T11:35:05.418Z,50.95
2022-08-07T11:36:08.147Z,50.76
2022-08-07T11:37:04.614Z,49.38
2022-08-07T11:38:12.524Z,50.95
2022-08-07T11:39:04.657Z,51.15
2022-08-07T11:40:04.711Z,48.37
2022-08-07T11:41:04.645Z,49.35
2022-08-07T11:42:04.658Z,51.91
2022-08-07T11:43:04.647Z,50.90
2022-08-07T11:44:12.525Z,50.71
2022-08-07T11:45:04.652Z,52.65
2022-08-07T11:46:04.662Z,50.19
2022-08-07T11:47:04.671Z,49.70
2022-08-07T11:48:13.716Z,51.74
2022-08-07T11:49:50.696Z,50.59
2022-08-07T11:50:30.545Z,48.72
2022-08-07T11:51:04.683Z,50.29
2022-08-07T11:52:04.691Z,49.19
2022-08-07T11:53:05.055Z,50.76
2022-08-07T11:54:10.120Z,50.16
2022-08-07T11:55:09.042Z,48.89
2022-08-07T11:56:24.998Z,51.15
2022-08-07T11:57:04.715Z,48.99
2022-08-07T11:58:04.785Z,51.05
2022-08-07T11:59:04.728Z,47.61
2022-08-07T12:00:12.561Z,48.89
2022-08-07T12:01:06.637Z,50.95
2022-08-07T12:02:04.824Z,50.85
2022-08-07T12:03:04.907Z,50.24
2022-08-07T12:04:04.760Z,50.44
2022-08-07T12:05:08.981Z,47.79
2022-08-07T12:06:39.140Z,48.69
2022-08-07T12:07:09.119Z,48.40
2022-08-07T12:08:04.782Z,52.30
2022-08-07T12:09:04.788Z,50.83
2022-08-07T12:10:05.930Z,53.06
2022-08-07T12:11:20.023Z,50.68
2022-08-07T12:12:09.392Z,49.31
2022-08-07T12:13:11.661Z,45.95
2022-08-07T12:14:04.823Z,46.42
2022-08-07T12:15:04.825Z,46.69
2022-08-07T12:16:06.105Z,47.16
2022-08-07T12:17:04.839Z,46.33
2022-08-07T12:18:08.146Z,45.61
2022-08-07T12:19:04.855Z,47.53
2022-08-07T12:20:09.530Z,43.32
2022-08-07T12:21:04.870Z,43.41
2022-08-07T12:22:38.655Z,44.54
2022-08-07T12:23:09.100Z,44.42
2022-08-07T12:24:36.901Z,42.41
2022-08-07T12:25:07.688Z,43.65
2022-08-07T12:26:28.640Z,40.56
2022-08-07T12:27:04.913Z,42.80
2022-08-07T12:28:09.414Z,42.60
2022-08-07T12:29:04.927Z,42.60
2022-08-07T12:30:04.935Z,42.68
2022-08-07T12:31:04.947Z,41.42
2022-08-07T12:32:05.811Z,42.66
2022-08-07T12:33:18.718Z,42.54
2022-08-07T12:34:04.979Z,41.36
2022-08-07T12:35:07.302Z,39.12
2022-08-07T12:36:05.651Z,40.17
2022-08-07T12:37:08.315Z,41.51
2022-08-07T12:38:11.596Z,39.76
2022-08-07T12:39:43.026Z,41.10
2022-08-07T12:40:05.061Z,39.24
2022-08-07T12:41:05.083Z,38.68
2022-08-07T12:42:05.034Z,41.27
2022-08-07T12:43:09.209Z,39.80
2022-08-07T12:44:06.411Z,41.06
2022-08-07T12:45:06.597Z,40.59
2022-08-07T12:46:05.067Z,41.45
2022-08-07T12:47:06.284Z,40.69
2022-08-07T12:48:05.086Z,40.13
2022-08-07T12:49:10.272Z,40.33
2022-08-07T12:50:39.537Z,39.86
2022-08-07T12:51:17.406Z,42.50
2022-08-07T12:52:12.162Z,41.64
2022-08-07T12:53:17.908Z,41.38
2022-08-07T12:54:38.152Z,42.44
2022-08-07T12:55:09.646Z,42.78
2022-08-07T12:56:09.338Z,42.29
2022-08-07T12:57:09.810Z,41.24
2022-08-07T12:58:05.168Z,41.26
2022-08-07T12:59:05.185Z,41.11
2022-08-07T13:00:05.190Z,43.88
2022-08-07T13:01:05.240Z,45.34
2022-08-07T13:02:09.903Z,45.25
2022-08-07T13:03:06.765Z,43.32
2022-08-07T13:04:05.562Z,44.21
2022-08-07T13:05:06.457Z,44.31
2022-08-07T13:06:21.641Z,44.80
2022-08-07T13:07:05.250Z,45.41
2022-08-07T13:08:14.029Z,45.31
2022-08-07T13:09:12.555Z,44.26
2022-08-07T13:10:22.029Z,45.04
2022-08-07T13:11:05.283Z,44.16
2022-08-07T13:12:10.259Z,44.74
2022-08-07T13:13:05.306Z,45.41
2022-08-07T13:14:05.313Z,44.16
2022-08-07T13:15:05.316Z,46.58
2022-08-07T13:16:05.331Z,45.87